sensor_id;sensor_type;location;lat;lon;timestamp;pressure;altitude;pressure_sealevel;temperature;humidity
65832;BME280;52593;42.648;23.332;2023-11-19T00:01:52;94493.81;;;1.84;79.05
65832;BME280;52593;42.648;23.332;2023-11-19T00:04:18;94491.72;;;1.77;79.08
65832;BME280;52593;42.648;23.332;2023-11-19T00:06:44;94487.19;;;1.89;78.80
65832;BME280;52593;42.648;23.332;2023-11-19T00:09:09;94495.81;;;1.91;78.66
65832;BME280;52593;42.648;23.332;2023-11-19T00:11:34;94494.53;;;1.86;78.22
65832;BME280;52593;42.648;23.332;2023-11-19T00:14:00;94477.31;;;1.82;78.10
65832;BME280;52593;42.648;23.332;2023-11-19T00:16:25;94481.50;;;1.84;78.48
65832;BME280;52593;42.648;23.332;2023-11-19T00:18:51;94476.34;;;1.83;78.06
65832;BME280;52593;42.648;23.332;2023-11-19T00:21:16;94488.00;;;1.90;77.80
65832;BME280;52593;42.648;23.332;2023-11-19T00:23:41;94487.88;;;1.91;77.69
65832;BME280;52593;42.648;23.332;2023-11-19T00:26:07;94481.50;;;1.94;77.73
65832;BME280;52593;42.648;23.332;2023-11-19T00:28:33;94481.25;;;1.97;77.91
65832;BME280;52593;42.648;23.332;2023-11-19T00:30:59;94481.97;;;1.99;77.57
65832;BME280;52593;42.648;23.332;2023-11-19T00:33:24;94493.50;;;1.98;77.40
65832;BME280;52593;42.648;23.332;2023-11-19T00:35:50;94492.41;;;2.01;77.19
65832;BME280;52593;42.648;23.332;2023-11-19T00:38:15;94499.84;;;1.95;77.29
65832;BME280;52593;42.648;23.332;2023-11-19T00:40:41;94512.63;;;1.90;77.77
65832;BME280;52593;42.648;23.332;2023-11-19T00:43:06;94505.09;;;1.86;77.81
65832;BME280;52593;42.648;23.332;2023-11-19T00:45:32;94513.19;;;1.94;77.75
65832;BME280;52593;42.648;23.332;2023-11-19T00:47:58;94509.38;;;1.87;77.66
65832;BME280;52593;42.648;23.332;2023-11-19T00:50:25;94504.03;;;1.98;77.63
65832;BME280;52593;42.648;23.332;2023-11-19T00:52:51;94510.75;;;2.02;77.41
65832;BME280;52593;42.648;23.332;2023-11-19T00:55:16;94499.91;;;2.05;77.63
65832;BME280;52593;42.648;23.332;2023-11-19T00:57:42;94487.13;;;2.01;77.67
65832;BME280;52593;42.648;23.332;2023-11-19T01:00:09;94509.84;;;1.92;77.94
65832;BME280;52593;42.648;23.332;2023-11-19T01:02:46;94501.22;;;1.90;78.12
65832;BME280;52593;42.648;23.332;2023-11-19T01:05:12;94516.47;;;1.86;78.45
65832;BME280;52593;42.648;23.332;2023-11-19T01:07:41;94507.47;;;1.89;78.20
65832;BME280;52593;42.648;23.332;2023-11-19T01:10:06;94508.31;;;1.89;78.23
65832;BME280;52593;42.648;23.332;2023-11-19T01:12:33;94506.75;;;1.87;78.22
65832;BME280;52593;42.648;23.332;2023-11-19T01:14:59;94519.13;;;1.86;78.05
65832;BME280;52593;42.648;23.332;2023-11-19T01:17:24;94508.72;;;1.94;77.82
65832;BME280;52593;42.648;23.332;2023-11-19T01:19:50;94515.38;;;1.89;78.21
65832;BME280;52593;42.648;23.332;2023-11-19T01:22:15;94517.31;;;1.87;78.33
65832;BME280;52593;42.648;23.332;2023-11-19T01:24:41;94503.28;;;1.86;78.40
65832;BME280;52593;42.648;23.332;2023-11-19T01:27:06;94504.38;;;1.84;78.24
65832;BME280;52593;42.648;23.332;2023-11-19T01:29:31;94506.34;;;1.91;78.00
65832;BME280;52593;42.648;23.332;2023-11-19T01:31:57;94500.66;;;1.86;78.27
65832;BME280;52593;42.648;23.332;2023-11-19T01:34:22;94514.09;;;1.83;77.79
65832;BME280;52593;42.648;23.332;2023-11-19T01:36:48;94509.91;;;1.81;77.83
65832;BME280;52593;42.648;23.332;2023-11-19T01:39:14;94521.19;;;1.83;77.54
65832;BME280;52593;42.648;23.332;2023-11-19T01:41:41;94502.59;;;1.84;77.86
65832;BME280;52593;42.648;23.332;2023-11-19T01:44:07;94513.53;;;1.80;77.35
65832;BME280;52593;42.648;23.332;2023-11-19T01:46:33;94498.25;;;1.73;77.83
65832;BME280;52593;42.648;23.332;2023-11-19T01:49:00;94504.31;;;1.64;77.67
65832;BME280;52593;42.648;23.332;2023-11-19T01:51:26;94508.41;;;1.57;77.96
65832;BME280;52593;42.648;23.332;2023-11-19T01:53:52;94520.50;;;1.59;77.68
65832;BME280;52593;42.648;23.332;2023-11-19T01:56:18;94517.16;;;1.57;77.95
65832;BME280;52593;42.648;23.332;2023-11-19T01:58:45;94544.69;;;1.65;77.59
65832;BME280;52593;42.648;23.332;2023-11-19T02:01:12;94524.53;;;1.64;77.09
65832;BME280;52593;42.648;23.332;2023-11-19T02:03:38;94531.38;;;1.66;77.32
65832;BME280;52593;42.648;23.332;2023-11-19T02:06:04;94534.44;;;1.71;77.20
65832;BME280;52593;42.648;23.332;2023-11-19T02:08:30;94533.34;;;1.74;76.83
65832;BME280;52593;42.648;23.332;2023-11-19T02:10:56;94525.13;;;1.67;76.22
65832;BME280;52593;42.648;23.332;2023-11-19T02:13:24;94507.38;;;1.69;75.96
65832;BME280;52593;42.648;23.332;2023-11-19T02:15:50;94515.03;;;1.72;76.13
65832;BME280;52593;42.648;23.332;2023-11-19T02:18:27;94516.25;;;1.68;75.80
65832;BME280;52593;42.648;23.332;2023-11-19T02:20:57;94511.81;;;1.69;75.98
65832;BME280;52593;42.648;23.332;2023-11-19T02:23:22;94513.88;;;1.65;76.03
65832;BME280;52593;42.648;23.332;2023-11-19T02:26:13;94518.06;;;1.68;75.68
65832;BME280;52593;42.648;23.332;2023-11-19T02:28:41;94524.66;;;1.62;75.92
65832;BME280;52593;42.648;23.332;2023-11-19T02:31:07;94520.00;;;1.66;76.09
65832;BME280;52593;42.648;23.332;2023-11-19T02:33:36;94514.88;;;1.74;75.62
65832;BME280;52593;42.648;23.332;2023-11-19T02:36:04;94523.88;;;1.71;75.62
65832;BME280;52593;42.648;23.332;2023-11-19T02:38:29;94490.25;;;1.64;75.74
65832;BME280;52593;42.648;23.332;2023-11-19T02:40:56;94507.06;;;1.63;76.07
65832;BME280;52593;42.648;23.332;2023-11-19T02:43:22;94517.66;;;1.72;75.59
65832;BME280;52593;42.648;23.332;2023-11-19T02:45:48;94516.38;;;1.67;75.86
65832;BME280;52593;42.648;23.332;2023-11-19T02:48:13;94507.19;;;1.61;75.82
65832;BME280;52593;42.648;23.332;2023-11-19T02:50:41;94514.00;;;1.64;75.95
65832;BME280;52593;42.648;23.332;2023-11-19T02:53:07;94518.25;;;1.55;75.72
65832;BME280;52593;42.648;23.332;2023-11-19T02:55:32;94510.00;;;1.48;76.25
65832;BME280;52593;42.648;23.332;2023-11-19T02:58:04;94511.69;;;1.49;76.46
65832;BME280;52593;42.648;23.332;2023-11-19T03:00:44;94496.25;;;1.45;76.46
65832;BME280;52593;42.648;23.332;2023-11-19T03:03:17;94494.84;;;1.40;76.87
65832;BME280;52593;42.648;23.332;2023-11-19T03:05:46;94504.81;;;1.37;76.73
65832;BME280;52593;42.648;23.332;2023-11-19T03:08:12;94490.59;;;1.28;76.86
65832;BME280;52593;42.648;23.332;2023-11-19T03:10:37;94502.69;;;1.31;77.14
65832;BME280;52593;42.648;23.332;2023-11-19T03:13:04;94509.66;;;1.32;77.52
65832;BME280;52593;42.648;23.332;2023-11-19T03:15:29;94509.53;;;1.33;77.05
65832;BME280;52593;42.648;23.332;2023-11-19T03:17:55;94506.88;;;1.33;77.36
65832;BME280;52593;42.648;23.332;2023-11-19T03:20:20;94516.84;;;1.30;77.26
65832;BME280;52593;42.648;23.332;2023-11-19T03:22:46;94510.13;;;1.25;77.41
65832;BME280;52593;42.648;23.332;2023-11-19T03:25:12;94498.91;;;1.23;77.73
65832;BME280;52593;42.648;23.332;2023-11-19T03:27:38;94506.94;;;1.22;77.86
65832;BME280;52593;42.648;23.332;2023-11-19T03:30:10;94492.78;;;1.23;77.64
65832;BME280;52593;42.648;23.332;2023-11-19T03:32:36;94502.31;;;1.35;77.16
65832;BME280;52593;42.648;23.332;2023-11-19T03:35:02;94509.84;;;1.40;77.02
65832;BME280;52593;42.648;23.332;2023-11-19T03:37:29;94503.00;;;1.37;76.23
65832;BME280;52593;42.648;23.332;2023-11-19T03:39:56;94512.84;;;1.35;76.98
65832;BME280;52593;42.648;23.332;2023-11-19T03:42:28;94513.94;;;1.33;76.67
65832;BME280;52593;42.648;23.332;2023-11-19T03:44:53;94510.59;;;1.31;76.94
65832;BME280;52593;42.648;23.332;2023-11-19T03:47:19;94537.53;;;1.34;76.81
65832;BME280;52593;42.648;23.332;2023-11-19T03:49:49;94535.16;;;1.31;76.83
65832;BME280;52593;42.648;23.332;2023-11-19T03:52:14;94548.59;;;1.28;77.35
65832;BME280;52593;42.648;23.332;2023-11-19T03:54:40;94554.56;;;1.30;77.38
65832;BME280;52593;42.648;23.332;2023-11-19T03:57:05;94548.72;;;1.27;77.34
65832;BME280;52593;42.648;23.332;2023-11-19T03:59:30;94541.16;;;1.33;77.60
65832;BME280;52593;42.648;23.332;2023-11-19T04:01:56;94538.28;;;1.36;77.59
65832;BME280;52593;42.648;23.332;2023-11-19T04:04:22;94548.19;;;1.44;77.42
65832;BME280;52593;42.648;23.332;2023-11-19T04:06:48;94557.41;;;1.38;77.34
65832;BME280;52593;42.648;23.332;2023-11-19T04:09:13;94565.84;;;1.32;77.09
65832;BME280;52593;42.648;23.332;2023-11-19T04:11:38;94556.00;;;1.34;77.49
65832;BME280;52593;42.648;23.332;2023-11-19T04:14:05;94562.38;;;1.32;77.69
65832;BME280;52593;42.648;23.332;2023-11-19T04:16:30;94574.69;;;1.31;77.38
65832;BME280;52593;42.648;23.332;2023-11-19T04:18:56;94565.22;;;1.29;77.68
65832;BME280;52593;42.648;23.332;2023-11-19T04:21:21;94550.72;;;1.34;77.63
65832;BME280;52593;42.648;23.332;2023-11-19T04:23:49;94563.72;;;1.26;77.51
65832;BME280;52593;42.648;23.332;2023-11-19T04:26:14;94547.38;;;1.32;77.71
65832;BME280;52593;42.648;23.332;2023-11-19T04:28:41;94546.91;;;1.27;77.49
65832;BME280;52593;42.648;23.332;2023-11-19T04:31:06;94542.75;;;1.24;77.21
65832;BME280;52593;42.648;23.332;2023-11-19T04:33:32;94568.22;;;1.35;76.92
65832;BME280;52593;42.648;23.332;2023-11-19T04:35:57;94561.41;;;1.33;76.77
65832;BME280;52593;42.648;23.332;2023-11-19T04:38:22;94571.44;;;1.39;76.49
65832;BME280;52593;42.648;23.332;2023-11-19T04:40:48;94558.63;;;1.34;76.68
65832;BME280;52593;42.648;23.332;2023-11-19T04:43:13;94578.06;;;1.33;76.17
65832;BME280;52593;42.648;23.332;2023-11-19T04:45:39;94581.41;;;1.35;76.32
65832;BME280;52593;42.648;23.332;2023-11-19T04:48:05;94564.50;;;1.38;76.57
65832;BME280;52593;42.648;23.332;2023-11-19T04:50:30;94573.94;;;1.40;75.84
65832;BME280;52593;42.648;23.332;2023-11-19T04:52:56;94580.19;;;1.39;76.01
65832;BME280;52593;42.648;23.332;2023-11-19T04:55:21;94577.09;;;1.34;75.84
65832;BME280;52593;42.648;23.332;2023-11-19T04:57:47;94580.44;;;1.36;75.80
65832;BME280;52593;42.648;23.332;2023-11-19T05:00:13;94591.44;;;1.41;75.72
65832;BME280;52593;42.648;23.332;2023-11-19T05:02:39;94582.09;;;1.37;75.58
65832;BME280;52593;42.648;23.332;2023-11-19T05:05:04;94588.56;;;1.45;75.37
65832;BME280;52593;42.648;23.332;2023-11-19T05:07:30;94605.94;;;1.47;75.12
65832;BME280;52593;42.648;23.332;2023-11-19T05:09:56;94621.41;;;1.40;74.83
65832;BME280;52593;42.648;23.332;2023-11-19T05:12:23;94636.47;;;1.50;74.89
65832;BME280;52593;42.648;23.332;2023-11-19T05:14:49;94607.38;;;1.40;74.63
65832;BME280;52593;42.648;23.332;2023-11-19T05:17:19;94619.94;;;1.48;74.98
65832;BME280;52593;42.648;23.332;2023-11-19T05:19:45;94621.38;;;1.52;74.97
65832;BME280;52593;42.648;23.332;2023-11-19T05:22:10;94613.84;;;1.47;74.76
65832;BME280;52593;42.648;23.332;2023-11-19T05:24:35;94611.59;;;1.42;74.55
65832;BME280;52593;42.648;23.332;2023-11-19T05:27:01;94608.44;;;1.49;74.68
65832;BME280;52593;42.648;23.332;2023-11-19T05:29:27;94613.22;;;1.43;74.91
65832;BME280;52593;42.648;23.332;2023-11-19T05:31:53;94599.22;;;1.43;75.12
65832;BME280;52593;42.648;23.332;2023-11-19T05:34:20;94604.94;;;1.48;74.86
65832;BME280;52593;42.648;23.332;2023-11-19T05:36:46;94611.47;;;1.44;74.94
65832;BME280;52593;42.648;23.332;2023-11-19T05:39:12;94617.09;;;1.39;74.91
65832;BME280;52593;42.648;23.332;2023-11-19T05:41:37;94615.88;;;1.43;75.13
65832;BME280;52593;42.648;23.332;2023-11-19T05:44:03;94620.44;;;1.41;75.66
65832;BME280;52593;42.648;23.332;2023-11-19T05:46:28;94605.56;;;1.40;75.24
65832;BME280;52593;42.648;23.332;2023-11-19T05:48:54;94615.88;;;1.43;75.46
65832;BME280;52593;42.648;23.332;2023-11-19T05:51:19;94618.06;;;1.38;75.46
65832;BME280;52593;42.648;23.332;2023-11-19T05:53:45;94606.81;;;1.36;75.70
65832;BME280;52593;42.648;23.332;2023-11-19T05:56:15;94608.03;;;1.32;75.81
65832;BME280;52593;42.648;23.332;2023-11-19T05:58:46;94612.34;;;1.33;75.85
65832;BME280;52593;42.648;23.332;2023-11-19T06:01:14;94608.16;;;1.31;76.30
65832;BME280;52593;42.648;23.332;2023-11-19T06:03:39;94613.91;;;1.24;76.12
65832;BME280;52593;42.648;23.332;2023-11-19T06:06:06;94620.72;;;1.27;75.66
65832;BME280;52593;42.648;23.332;2023-11-19T06:08:32;94633.19;;;1.25;75.75
65832;BME280;52593;42.648;23.332;2023-11-19T06:10:58;94641.56;;;1.30;75.88
65832;BME280;52593;42.648;23.332;2023-11-19T06:13:23;94643.09;;;1.44;75.36
65832;BME280;52593;42.648;23.332;2023-11-19T06:15:50;94639.34;;;1.47;75.21
65832;BME280;52593;42.648;23.332;2023-11-19T06:18:16;94631.38;;;1.37;75.73
65832;BME280;52593;42.648;23.332;2023-11-19T06:20:41;94652.09;;;1.41;75.64
65832;BME280;52593;42.648;23.332;2023-11-19T06:23:07;94635.44;;;1.41;75.82
65832;BME280;52593;42.648;23.332;2023-11-19T06:25:32;94632.19;;;1.37;75.89
65832;BME280;52593;42.648;23.332;2023-11-19T06:28:00;94629.81;;;1.34;76.26
65832;BME280;52593;42.648;23.332;2023-11-19T06:30:25;94652.47;;;1.37;75.62
65832;BME280;52593;42.648;23.332;2023-11-19T06:32:53;94640.59;;;1.31;76.16
65832;BME280;52593;42.648;23.332;2023-11-19T06:35:19;94640.34;;;1.34;76.48
65832;BME280;52593;42.648;23.332;2023-11-19T06:37:44;94624.47;;;1.24;76.44
65832;BME280;52593;42.648;23.332;2023-11-19T06:40:10;94625.41;;;1.23;76.57
65832;BME280;52593;42.648;23.332;2023-11-19T06:42:37;94640.59;;;1.31;76.78
65832;BME280;52593;42.648;23.332;2023-11-19T06:45:04;94628.84;;;1.35;76.09
65832;BME280;52593;42.648;23.332;2023-11-19T06:47:29;94627.44;;;1.31;76.81
65832;BME280;52593;42.648;23.332;2023-11-19T06:49:55;94643.13;;;1.33;75.91
65832;BME280;52593;42.648;23.332;2023-11-19T06:52:21;94640.03;;;1.28;76.27
65832;BME280;52593;42.648;23.332;2023-11-19T06:54:46;94640.41;;;1.23;75.80
65832;BME280;52593;42.648;23.332;2023-11-19T06:57:12;94654.44;;;1.12;76.04
65832;BME280;52593;42.648;23.332;2023-11-19T06:59:38;94643.53;;;1.17;76.09
65832;BME280;52593;42.648;23.332;2023-11-19T07:02:05;94649.63;;;1.17;75.64
65832;BME280;52593;42.648;23.332;2023-11-19T07:04:31;94656.72;;;1.05;76.14
65832;BME280;52593;42.648;23.332;2023-11-19T07:06:57;94661.63;;;1.10;76.48
65832;BME280;52593;42.648;23.332;2023-11-19T07:09:22;94648.00;;;1.05;76.23
65832;BME280;52593;42.648;23.332;2023-11-19T07:11:48;94662.22;;;1.14;76.12
65832;BME280;52593;42.648;23.332;2023-11-19T07:14:17;94674.56;;;1.13;75.29
65832;BME280;52593;42.648;23.332;2023-11-19T07:16:43;94661.50;;;1.23;75.54
65832;BME280;52593;42.648;23.332;2023-11-19T07:19:08;94650.72;;;1.15;75.52
65832;BME280;52593;42.648;23.332;2023-11-19T07:21:34;94663.16;;;1.24;75.11
65832;BME280;52593;42.648;23.332;2023-11-19T07:24:00;94667.34;;;1.38;75.56
65832;BME280;52593;42.648;23.332;2023-11-19T07:26:27;94671.91;;;1.24;74.69
65832;BME280;52593;42.648;23.332;2023-11-19T07:28:53;94664.34;;;1.31;74.80
65832;BME280;52593;42.648;23.332;2023-11-19T07:31:18;94675.97;;;1.29;74.36
65832;BME280;52593;42.648;23.332;2023-11-19T07:33:46;94682.56;;;1.23;74.43
65832;BME280;52593;42.648;23.332;2023-11-19T07:36:13;94692.75;;;1.28;74.93
65832;BME280;52593;42.648;23.332;2023-11-19T07:38:39;94698.97;;;1.27;75.36
65832;BME280;52593;42.648;23.332;2023-11-19T07:41:07;94698.84;;;1.28;75.31
65832;BME280;52593;42.648;23.332;2023-11-19T07:43:38;94690.44;;;1.34;74.74
65832;BME280;52593;42.648;23.332;2023-11-19T07:46:04;94697.03;;;1.40;74.61
65832;BME280;52593;42.648;23.332;2023-11-19T07:48:29;94704.63;;;1.33;74.63
65832;BME280;52593;42.648;23.332;2023-11-19T07:50:55;94694.53;;;1.27;74.11
65832;BME280;52593;42.648;23.332;2023-11-19T07:53:21;94703.66;;;1.12;74.23
65832;BME280;52593;42.648;23.332;2023-11-19T07:55:46;94731.25;;;1.08;74.09
65832;BME280;52593;42.648;23.332;2023-11-19T07:58:12;94718.06;;;1.08;74.23
65832;BME280;52593;42.648;23.332;2023-11-19T08:00:38;94713.75;;;1.06;74.77
65832;BME280;52593;42.648;23.332;2023-11-19T08:03:04;94702.25;;;1.08;74.26
65832;BME280;52593;42.648;23.332;2023-11-19T08:05:31;94717.34;;;1.05;74.15
65832;BME280;52593;42.648;23.332;2023-11-19T08:07:56;94726.34;;;1.03;74.14
65832;BME280;52593;42.648;23.332;2023-11-19T08:10:22;94719.13;;;1.16;74.57
65832;BME280;52593;42.648;23.332;2023-11-19T08:12:48;94717.19;;;1.30;73.79
65832;BME280;52593;42.648;23.332;2023-11-19T08:15:14;94725.00;;;1.20;73.52
65832;BME280;52593;42.648;23.332;2023-11-19T08:17:39;94721.88;;;1.26;73.60
65832;BME280;52593;42.648;23.332;2023-11-19T08:20:05;94742.22;;;1.24;73.36
65832;BME280;52593;42.648;23.332;2023-11-19T08:22:35;94738.66;;;1.14;73.45
65832;BME280;52593;42.648;23.332;2023-11-19T08:25:00;94725.25;;;1.17;73.80
65832;BME280;52593;42.648;23.332;2023-11-19T08:27:26;94727.75;;;1.07;73.85
65832;BME280;52593;42.648;23.332;2023-11-19T08:29:55;94726.06;;;1.17;74.62
65832;BME280;52593;42.648;23.332;2023-11-19T08:32:24;94735.06;;;1.15;74.50
65832;BME280;52593;42.648;23.332;2023-11-19T08:34:49;94729.53;;;1.29;73.92
65832;BME280;52593;42.648;23.332;2023-11-19T08:37:15;94729.28;;;1.32;74.27
65832;BME280;52593;42.648;23.332;2023-11-19T08:39:40;94732.63;;;1.34;73.73
65832;BME280;52593;42.648;23.332;2023-11-19T08:42:07;94736.97;;;1.35;73.60
65832;BME280;52593;42.648;23.332;2023-11-19T08:44:32;94728.56;;;1.41;73.98
65832;BME280;52593;42.648;23.332;2023-11-19T08:46:58;94729.00;;;1.47;73.35
65832;BME280;52593;42.648;23.332;2023-11-19T08:49:23;94729.75;;;1.37;72.88
65832;BME280;52593;42.648;23.332;2023-11-19T08:51:49;94720.56;;;1.32;72.71
65832;BME280;52593;42.648;23.332;2023-11-19T08:54:14;94722.56;;;1.39;72.93
65832;BME280;52593;42.648;23.332;2023-11-19T08:56:40;94728.06;;;1.48;72.09
65832;BME280;52593;42.648;23.332;2023-11-19T08:59:05;94736.47;;;1.41;71.84
65832;BME280;52593;42.648;23.332;2023-11-19T09:01:31;94739.72;;;1.34;72.70
65832;BME280;52593;42.648;23.332;2023-11-19T09:03:56;94734.16;;;1.48;72.42
65832;BME280;52593;42.648;23.332;2023-11-19T09:06:22;94719.19;;;1.49;71.47
65832;BME280;52593;42.648;23.332;2023-11-19T09:08:48;94724.09;;;1.53;71.33
65832;BME280;52593;42.648;23.332;2023-11-19T09:11:13;94719.03;;;1.62;71.33
65832;BME280;52593;42.648;23.332;2023-11-19T09:13:38;94706.00;;;1.81;71.03
65832;BME280;52593;42.648;23.332;2023-11-19T09:16:04;94704.88;;;1.95;70.41
65832;BME280;52593;42.648;23.332;2023-11-19T09:18:30;94701.19;;;1.86;70.40
65832;BME280;52593;42.648;23.332;2023-11-19T09:20:57;94689.69;;;1.76;71.08
65832;BME280;52593;42.648;23.332;2023-11-19T09:23:22;94711.06;;;1.73;71.19
65832;BME280;52593;42.648;23.332;2023-11-19T09:25:47;94723.69;;;1.69;71.72
65832;BME280;52593;42.648;23.332;2023-11-19T09:28:13;94714.88;;;1.80;71.80
65832;BME280;52593;42.648;23.332;2023-11-19T09:30:39;94719.84;;;1.94;71.55
65832;BME280;52593;42.648;23.332;2023-11-19T09:33:05;94721.69;;;2.15;70.98
65832;BME280;52593;42.648;23.332;2023-11-19T09:35:30;94712.06;;;2.14;70.36
65832;BME280;52593;42.648;23.332;2023-11-19T09:37:56;94703.34;;;2.13;69.76
65832;BME280;52593;42.648;23.332;2023-11-19T09:40:21;94698.88;;;2.35;68.82
65832;BME280;52593;42.648;23.332;2023-11-19T09:42:47;94688.22;;;2.46;68.88
65832;BME280;52593;42.648;23.332;2023-11-19T09:45:15;94680.78;;;2.52;67.87
65832;BME280;52593;42.648;23.332;2023-11-19T09:47:45;94683.88;;;2.36;68.46
65832;BME280;52593;42.648;23.332;2023-11-19T09:50:18;94668.69;;;2.28;68.70
65832;BME280;52593;42.648;23.332;2023-11-19T09:52:44;94674.63;;;2.51;68.64
65832;BME280;52593;42.648;23.332;2023-11-19T09:55:10;94662.53;;;2.79;68.59
65832;BME280;52593;42.648;23.332;2023-11-19T09:57:38;94652.88;;;3.09;67.20
65832;BME280;52593;42.648;23.332;2023-11-19T10:00:05;94663.22;;;3.22;66.09
65832;BME280;52593;42.648;23.332;2023-11-19T10:02:33;94647.38;;;3.32;66.85
65832;BME280;52593;42.648;23.332;2023-11-19T10:05:05;94645.16;;;3.37;66.01
65832;BME280;52593;42.648;23.332;2023-11-19T10:07:32;94655.56;;;3.29;66.40
65832;BME280;52593;42.648;23.332;2023-11-19T10:10:01;94654.91;;;2.86;65.99
65832;BME280;52593;42.648;23.332;2023-11-19T10:12:27;94643.13;;;3.00;66.08
65832;BME280;52593;42.648;23.332;2023-11-19T10:14:56;94641.78;;;3.25;65.91
65832;BME280;52593;42.648;23.332;2023-11-19T10:17:36;94638.75;;;3.59;64.69
65832;BME280;52593;42.648;23.332;2023-11-19T10:20:01;94652.13;;;3.57;64.42
65832;BME280;52593;42.648;23.332;2023-11-19T10:22:28;94662.69;;;3.38;64.69
65832;BME280;52593;42.648;23.332;2023-11-19T10:24:54;94666.69;;;3.13;64.89
65832;BME280;52593;42.648;23.332;2023-11-19T10:27:19;94647.44;;;2.91;64.79
65832;BME280;52593;42.648;23.332;2023-11-19T10:29:46;94637.88;;;3.19;65.15
65832;BME280;52593;42.648;23.332;2023-11-19T10:32:12;94635.50;;;3.26;64.55
65832;BME280;52593;42.648;23.332;2023-11-19T10:34:38;94631.53;;;3.51;64.02
65832;BME280;52593;42.648;23.332;2023-11-19T10:37:05;94631.78;;;3.58;62.96
65832;BME280;52593;42.648;23.332;2023-11-19T10:39:53;94624.16;;;3.65;63.25
65832;BME280;52593;42.648;23.332;2023-11-19T10:42:22;94633.47;;;3.49;62.92
65832;BME280;52593;42.648;23.332;2023-11-19T10:44:47;94629.44;;;3.45;62.82
65832;BME280;52593;42.648;23.332;2023-11-19T10:47:19;94638.03;;;3.28;63.15
65832;BME280;52593;42.648;23.332;2023-11-19T10:49:45;94624.56;;;3.50;64.06
65832;BME280;52593;42.648;23.332;2023-11-19T10:52:19;94622.59;;;3.72;62.33
65832;BME280;52593;42.648;23.332;2023-11-19T10:54:49;94625.69;;;3.48;62.75
65832;BME280;52593;42.648;23.332;2023-11-19T10:57:19;94611.06;;;3.44;63.02
65832;BME280;52593;42.648;23.332;2023-11-19T10:59:46;94608.56;;;3.42;63.09
65832;BME280;52593;42.648;23.332;2023-11-19T11:02:16;94616.72;;;3.10;63.75
65832;BME280;52593;42.648;23.332;2023-11-19T11:04:45;94621.13;;;2.90;64.27
65832;BME280;52593;42.648;23.332;2023-11-19T11:07:13;94604.69;;;2.86;64.26
65832;BME280;52593;42.648;23.332;2023-11-19T11:09:41;94600.00;;;2.99;64.34
65832;BME280;52593;42.648;23.332;2023-11-19T11:12:08;94599.47;;;3.15;64.26
65832;BME280;52593;42.648;23.332;2023-11-19T11:14:37;94594.72;;;3.09;63.78
65832;BME280;52593;42.648;23.332;2023-11-19T11:17:03;94579.16;;;3.16;64.00
65832;BME280;52593;42.648;23.332;2023-11-19T11:19:33;94593.91;;;3.28;63.73
65832;BME280;52593;42.648;23.332;2023-11-19T11:22:00;94586.94;;;3.27;63.29
65832;BME280;52593;42.648;23.332;2023-11-19T11:30:31;94602.56;;;3.60;62.72
65832;BME280;52593;42.648;23.332;2023-11-19T11:35:55;94596.41;;;3.69;62.61
65832;BME280;52593;42.648;23.332;2023-11-19T11:38:27;94586.38;;;3.82;63.00
65832;BME280;52593;42.648;23.332;2023-11-19T11:41:21;94576.72;;;4.01;61.14
65832;BME280;52593;42.648;23.332;2023-11-19T11:43:52;94561.25;;;4.16;61.51
65832;BME280;52593;42.648;23.332;2023-11-19T11:49:27;94555.16;;;3.86;61.65
65832;BME280;52593;42.648;23.332;2023-11-19T11:51:59;94555.72;;;3.80;62.38
65832;BME280;52593;42.648;23.332;2023-11-19T11:54:28;94549.81;;;4.05;62.23
65832;BME280;52593;42.648;23.332;2023-11-19T11:57:08;94567.66;;;4.13;60.74
65832;BME280;52593;42.648;23.332;2023-11-19T11:59:48;94565.19;;;4.02;61.46
65832;BME280;52593;42.648;23.332;2023-11-19T12:02:16;94571.91;;;3.86;62.09
65832;BME280;52593;42.648;23.332;2023-11-19T12:04:42;94577.22;;;3.67;62.95
65832;BME280;52593;42.648;23.332;2023-11-19T12:07:16;94576.06;;;3.79;63.01
65832;BME280;52593;42.648;23.332;2023-11-19T12:09:47;94573.69;;;3.86;63.17
65832;BME280;52593;42.648;23.332;2023-11-19T12:12:20;94566.75;;;3.75;61.50
65832;BME280;52593;42.648;23.332;2023-11-19T12:20:05;94557.50;;;4.46;60.03
65832;BME280;52593;42.648;23.332;2023-11-19T12:22:40;94539.41;;;4.41;59.01
65832;BME280;52593;42.648;23.332;2023-11-19T12:25:07;94546.69;;;4.29;60.36
65832;BME280;52593;42.648;23.332;2023-11-19T12:27:34;94543.94;;;4.21;60.63
65832;BME280;52593;42.648;23.332;2023-11-19T12:30:01;94521.59;;;4.34;59.96
65832;BME280;52593;42.648;23.332;2023-11-19T12:32:40;94531.22;;;4.25;59.83
65832;BME280;52593;42.648;23.332;2023-11-19T12:35:07;94533.09;;;4.42;58.85
65832;BME280;52593;42.648;23.332;2023-11-19T12:37:41;94517.25;;;4.60;58.36
65832;BME280;52593;42.648;23.332;2023-11-19T12:40:15;94513.97;;;4.76;57.91
65832;BME280;52593;42.648;23.332;2023-11-19T12:42:41;94514.34;;;4.81;57.67
65832;BME280;52593;42.648;23.332;2023-11-19T12:45:07;94509.88;;;4.82;57.72
65832;BME280;52593;42.648;23.332;2023-11-19T12:47:36;94518.72;;;4.73;57.73
65832;BME280;52593;42.648;23.332;2023-11-19T12:50:02;94509.47;;;4.59;59.44
65832;BME280;52593;42.648;23.332;2023-11-19T12:52:27;94510.34;;;4.22;61.42
65832;BME280;52593;42.648;23.332;2023-11-19T12:54:53;94506.19;;;4.09;62.53
65832;BME280;52593;42.648;23.332;2023-11-19T12:57:18;94510.03;;;4.25;62.90
65832;BME280;52593;42.648;23.332;2023-11-19T12:59:55;94511.88;;;4.24;62.90
65832;BME280;52593;42.648;23.332;2023-11-19T13:02:22;94509.03;;;4.36;63.08
65832;BME280;52593;42.648;23.332;2023-11-19T13:04:48;94499.94;;;4.66;62.38
65832;BME280;52593;42.648;23.332;2023-11-19T13:07:20;94494.75;;;5.10;60.47
65832;BME280;52593;42.648;23.332;2023-11-19T13:09:46;94503.16;;;5.24;59.62
65832;BME280;52593;42.648;23.332;2023-11-19T13:12:13;94503.69;;;4.91;60.82
65832;BME280;52593;42.648;23.332;2023-11-19T13:14:39;94503.69;;;4.91;60.58
65832;BME280;52593;42.648;23.332;2023-11-19T13:17:07;94506.66;;;5.06;59.91